sensor_id;sensor_type;location;lat;lon;timestamp;P1;P2;P0
57884;PMS5003;43703;51.060;-0.086;2022-07-10T00:02:24;12;12;
57884;PMS5003;43703;51.060;-0.086;2022-07-10T00:04:49;13;13;
57884;PMS5003;43703;51.060;-0.086;2022-07-10T00:07:14;13;13;
57884;PMS5003;43703;51.060;-0.086;2022-07-10T00:09:41;13;11;
57884;PMS5003;43703;51.060;-0.086;2022-07-10T00:12:05;11;11;
57884;PMS5003;43703;51.060;-0.086;2022-07-10T00:14:29;8;7;
57884;PMS5003;43703;51.060;-0.086;2022-07-10T00:16:56;9;9;
57884;PMS5003;43703;51.060;-0.086;2022-07-10T00:19:20;8;8;
57884;PMS5003;43703;51.060;-0.086;2022-07-10T00:21:46;6;6;
57884;PMS5003;43703;51.060;-0.086;2022-07-10T00:24:10;8;7;
57884;PMS5003;43703;51.060;-0.086;2022-07-10T00:26:35;7;7;
57884;PMS5003;43703;51.060;-0.086;2022-07-10T00:29:00;9;8;
57884;PMS5003;43703;51.060;-0.086;2022-07-10T00:31:26;12;12;
57884;PMS5003;43703;51.060;-0.086;2022-07-10T00:33:51;9;9;
57884;PMS5003;43703;51.060;-0.086;2022-07-10T00:36:16;9;9;
57884;PMS5003;43703;51.060;-0.086;2022-07-10T00:38:41;9;9;
57884;PMS5003;43703;51.060;-0.086;2022-07-10T00:41:06;8;8;
57884;PMS5003;43703;51.060;-0.086;2022-07-10T00:45:55;8;8;
57884;PMS5003;43703;51.060;-0.086;2022-07-10T00:48:21;7;7;
57884;PMS5003;43703;51.060;-0.086;2022-07-10T00:50:47;7;7;
57884;PMS5003;43703;51.060;-0.086;2022-07-10T00:53:12;8;8;
57884;PMS5003;43703;51.060;-0.086;2022-07-10T00:55:36;8;8;
57884;PMS5003;43703;51.060;-0.086;2022-07-10T00:58:01;7;7;
57884;PMS5003;43703;51.060;-0.086;2022-07-10T01:00:26;8;6;
57884;PMS5003;43703;51.060;-0.086;2022-07-10T01:02:51;7;7;
57884;PMS5003;43703;51.060;-0.086;2022-07-10T01:05:16;8;6;
57884;PMS5003;43703;51.060;-0.086;2022-07-10T01:07:41;8;7;
57884;PMS5003;43703;51.060;-0.086;2022-07-10T01:10:07;7;7;
57884;PMS5003;43703;51.060;-0.086;2022-07-10T01:12:31;7;7;
57884;PMS5003;43703;51.060;-0.086;2022-07-10T01:14:57;7;6;
57884;PMS5003;43703;51.060;-0.086;2022-07-10T01:17:21;6;6;
57884;PMS5003;43703;51.060;-0.086;2022-07-10T01:19:47;8;6;
57884;PMS5003;43703;51.060;-0.086;2022-07-10T01:22:11;6;6;
57884;PMS5003;43703;51.060;-0.086;2022-07-10T01:24:37;6;6;
57884;PMS5003;43703;51.060;-0.086;2022-07-10T01:27:02;6;6;
57884;PMS5003;43703;51.060;-0.086;2022-07-10T01:29:27;5;5;
57884;PMS5003;43703;51.060;-0.086;2022-07-10T01:31:51;7;7;
57884;PMS5003;43703;51.060;-0.086;2022-07-10T01:34:16;8;8;
57884;PMS5003;43703;51.060;-0.086;2022-07-10T01:36:42;6;6;
57884;PMS5003;43703;51.060;-0.086;2022-07-10T01:39:06;8;8;
57884;PMS5003;43703;51.060;-0.086;2022-07-10T01:41:32;9;7;
57884;PMS5003;43703;51.060;-0.086;2022-07-10T01:43:56;5;5;
57884;PMS5003;43703;51.060;-0.086;2022-07-10T01:46:22;8;5;
57884;PMS5003;43703;51.060;-0.086;2022-07-10T01:48:47;6;6;
57884;PMS5003;43703;51.060;-0.086;2022-07-10T01:51:12;6;6;
57884;PMS5003;43703;51.060;-0.086;2022-07-10T01:53:37;5;5;
57884;PMS5003;43703;51.060;-0.086;2022-07-10T01:56:03;5;5;
57884;PMS5003;43703;51.060;-0.086;2022-07-10T01:58:27;5;5;
57884;PMS5003;43703;51.060;-0.086;2022-07-10T02:00:52;8;6;
57884;PMS5003;43703;51.060;-0.086;2022-07-10T02:03:22;5;5;
57884;PMS5003;43703;51.060;-0.086;2022-07-10T02:05:42;8;7;
57884;PMS5003;43703;51.060;-0.086;2022-07-10T02:08:12;4;4;
57884;PMS5003;43703;51.060;-0.086;2022-07-10T02:10:34;4;4;
57884;PMS5003;43703;51.060;-0.086;2022-07-10T02:12:57;4;4;
57884;PMS5003;43703;51.060;-0.086;2022-07-10T02:15:22;5;4;
57884;PMS5003;43703;51.060;-0.086;2022-07-10T02:17:47;5;5;
57884;PMS5003;43703;51.060;-0.086;2022-07-10T02:20:12;5;5;
57884;PMS5003;43703;51.060;-0.086;2022-07-10T02:22:37;6;6;
57884;PMS5003;43703;51.060;-0.086;2022-07-10T02:25:02;7;5;
57884;PMS5003;43703;51.060;-0.086;2022-07-10T02:27:27;5;4;
57884;PMS5003;43703;51.060;-0.086;2022-07-10T02:29:52;6;6;
57884;PMS5003;43703;51.060;-0.086;2022-07-10T02:32:17;4;4;
57884;PMS5003;43703;51.060;-0.086;2022-07-10T02:34:43;6;6;
57884;PMS5003;43703;51.060;-0.086;2022-07-10T02:37:08;6;6;
57884;PMS5003;43703;51.060;-0.086;2022-07-10T02:39:33;5;5;
57884;PMS5003;43703;51.060;-0.086;2022-07-10T02:41:58;6;6;
57884;PMS5003;43703;51.060;-0.086;2022-07-10T02:44:23;5;5;
57884;PMS5003;43703;51.060;-0.086;2022-07-10T02:46:49;8;7;
57884;PMS5003;43703;51.060;-0.086;2022-07-10T02:49:14;7;7;
57884;PMS5003;43703;51.060;-0.086;2022-07-10T02:51:38;6;6;
57884;PMS5003;43703;51.060;-0.086;2022-07-10T02:54:03;6;6;
57884;PMS5003;43703;51.060;-0.086;2022-07-10T02:56:33;6;6;
57884;PMS5003;43703;51.060;-0.086;2022-07-10T02:58:53;7;7;
57884;PMS5003;43703;51.060;-0.086;2022-07-10T03:01:18;7;7;
57884;PMS5003;43703;51.060;-0.086;2022-07-10T03:03:43;4;4;
57884;PMS5003;43703;51.060;-0.086;2022-07-10T03:06:08;5;5;
57884;PMS5003;43703;51.060;-0.086;2022-07-10T03:08:33;3;3;
57884;PMS5003;43703;51.060;-0.086;2022-07-10T03:10:58;5;5;
57884;PMS5003;43703;51.060;-0.086;2022-07-10T03:13:24;6;6;
57884;PMS5003;43703;51.060;-0.086;2022-07-10T03:15:48;6;5;
57884;PMS5003;43703;51.060;-0.086;2022-07-10T03:18:13;8;8;
57884;PMS5003;43703;51.060;-0.086;2022-07-10T03:20:39;6;6;
57884;PMS5003;43703;51.060;-0.086;2022-07-10T03:23:05;6;6;
57884;PMS5003;43703;51.060;-0.086;2022-07-10T03:25:28;7;4;
57884;PMS5003;43703;51.060;-0.086;2022-07-10T03:27:54;6;6;
57884;PMS5003;43703;51.060;-0.086;2022-07-10T03:30:18;3;3;
57884;PMS5003;43703;51.060;-0.086;2022-07-10T03:32:44;5;5;
57884;PMS5003;43703;51.060;-0.086;2022-07-10T03:35:09;6;6;
57884;PMS5003;43703;51.060;-0.086;2022-07-10T03:37:33;5;5;
57884;PMS5003;43703;51.060;-0.086;2022-07-10T03:39:59;4;4;
57884;PMS5003;43703;51.060;-0.086;2022-07-10T03:42:24;5;5;
57884;PMS5003;43703;51.060;-0.086;2022-07-10T03:44:49;5;5;
57884;PMS5003;43703;51.060;-0.086;2022-07-10T03:47:14;7;7;
57884;PMS5003;43703;51.060;-0.086;2022-07-10T03:49:38;6;6;
57884;PMS5003;43703;51.060;-0.086;2022-07-10T03:52:04;8;6;
57884;PMS5003;43703;51.060;-0.086;2022-07-10T03:54:29;6;6;
57884;PMS5003;43703;51.060;-0.086;2022-07-10T03:56:53;6;6;
57884;PMS5003;43703;51.060;-0.086;2022-07-10T03:59:19;4;4;
57884;PMS5003;43703;51.060;-0.086;2022-07-10T04:01:44;6;5;
57884;PMS5003;43703;51.060;-0.086;2022-07-10T04:04:09;7;7;
57884;PMS5003;43703;51.060;-0.086;2022-07-10T04:06:35;4;4;
57884;PMS5003;43703;51.060;-0.086;2022-07-10T04:08:59;7;6;
57884;PMS5003;43703;51.060;-0.086;2022-07-10T04:11:24;6;6;
57884;PMS5003;43703;51.060;-0.086;2022-07-10T04:13:49;7;7;
57884;PMS5003;43703;51.060;-0.086;2022-07-10T04:16:18;6;6;
57884;PMS5003;43703;51.060;-0.086;2022-07-10T04:18:40;6;6;
57884;PMS5003;43703;51.060;-0.086;2022-07-10T04:21:04;5;5;
57884;PMS5003;43703;51.060;-0.086;2022-07-10T04:23:29;7;7;
57884;PMS5003;43703;51.060;-0.086;2022-07-10T04:25:54;6;6;
57884;PMS5003;43703;51.060;-0.086;2022-07-10T04:28:19;7;7;
57884;PMS5003;43703;51.060;-0.086;2022-07-10T04:30:44;4;4;
57884;PMS5003;43703;51.060;-0.086;2022-07-10T04:33:10;4;4;
57884;PMS5003;43703;51.060;-0.086;2022-07-10T04:35:34;6;6;
57884;PMS5003;43703;51.060;-0.086;2022-07-10T04:37:59;7;5;
57884;PMS5003;43703;51.060;-0.086;2022-07-10T04:40:24;5;5;
57884;PMS5003;43703;51.060;-0.086;2022-07-10T04:42:49;7;6;
57884;PMS5003;43703;51.060;-0.086;2022-07-10T04:45:16;7;5;
57884;PMS5003;43703;51.060;-0.086;2022-07-10T04:47:40;7;7;
57884;PMS5003;43703;51.060;-0.086;2022-07-10T04:50:05;5;5;
57884;PMS5003;43703;51.060;-0.086;2022-07-10T04:52:30;4;4;
57884;PMS5003;43703;51.060;-0.086;2022-07-10T04:54:54;6;6;
57884;PMS5003;43703;51.060;-0.086;2022-07-10T04:57:21;10;10;
57884;PMS5003;43703;51.060;-0.086;2022-07-10T04:59:46;6;6;
57884;PMS5003;43703;51.060;-0.086;2022-07-10T05:02:12;8;5;
57884;PMS5003;43703;51.060;-0.086;2022-07-10T05:04:36;6;6;
57884;PMS5003;43703;51.060;-0.086;2022-07-10T05:07:02;5;5;
57884;PMS5003;43703;51.060;-0.086;2022-07-10T05:09:27;5;5;
57884;PMS5003;43703;51.060;-0.086;2022-07-10T05:11:52;5;5;
57884;PMS5003;43703;51.060;-0.086;2022-07-10T05:14:17;7;5;
57884;PMS5003;43703;51.060;-0.086;2022-07-10T05:16:42;6;6;
57884;PMS5003;43703;51.060;-0.086;2022-07-10T05:19:06;6;6;
57884;PMS5003;43703;51.060;-0.086;2022-07-10T05:23:57;6;6;
57884;PMS5003;43703;51.060;-0.086;2022-07-10T05:26:22;5;5;
57884;PMS5003;43703;51.060;-0.086;2022-07-10T05:28:47;6;6;
57884;PMS5003;43703;51.060;-0.086;2022-07-10T05:31:12;5;5;
57884;PMS5003;43703;51.060;-0.086;2022-07-10T05:33:37;5;5;
57884;PMS5003;43703;51.060;-0.086;2022-07-10T05:36:07;6;6;
57884;PMS5003;43703;51.060;-0.086;2022-07-10T05:38:28;6;6;
57884;PMS5003;43703;51.060;-0.086;2022-07-10T05:40:52;6;6;
57884;PMS5003;43703;51.060;-0.086;2022-07-10T05:43:17;5;5;
57884;PMS5003;43703;51.060;-0.086;2022-07-10T05:45:42;5;5;
57884;PMS5003;43703;51.060;-0.086;2022-07-10T05:48:07;5;4;
57884;PMS5003;43703;51.060;-0.086;2022-07-10T05:50:32;7;7;
57884;PMS5003;43703;51.060;-0.086;2022-07-10T05:52:57;7;6;
57884;PMS5003;43703;51.060;-0.086;2022-07-10T05:55:23;7;6;
57884;PMS5003;43703;51.060;-0.086;2022-07-10T05:57:47;6;6;
57884;PMS5003;43703;51.060;-0.086;2022-07-10T06:00:13;5;5;
57884;PMS5003;43703;51.060;-0.086;2022-07-10T06:02:38;8;6;
57884;PMS5003;43703;51.060;-0.086;2022-07-10T06:05:03;8;8;
57884;PMS5003;43703;51.060;-0.086;2022-07-10T06:07:29;8;7;
57884;PMS5003;43703;51.060;-0.086;2022-07-10T06:09:53;9;8;
57884;PMS5003;43703;51.060;-0.086;2022-07-10T06:12:19;7;7;
57884;PMS5003;43703;51.060;-0.086;2022-07-10T06:14:43;6;6;
57884;PMS5003;43703;51.060;-0.086;2022-07-10T06:17:08;6;6;
57884;PMS5003;43703;51.060;-0.086;2022-07-10T06:19:34;5;5;
57884;PMS5003;43703;51.060;-0.086;2022-07-10T06:21:59;6;6;
57884;PMS5003;43703;51.060;-0.086;2022-07-10T06:24:25;5;5;
57884;PMS5003;43703;51.060;-0.086;2022-07-10T06:26:50;6;6;
57884;PMS5003;43703;51.060;-0.086;2022-07-10T06:29:16;6;6;
57884;PMS5003;43703;51.060;-0.086;2022-07-10T06:31:42;5;5;
57884;PMS5003;43703;51.060;-0.086;2022-07-10T06:34:08;6;4;
57884;PMS5003;43703;51.060;-0.086;2022-07-10T06:36:34;4;4;
57884;PMS5003;43703;51.060;-0.086;2022-07-10T06:39:01;5;5;
57884;PMS5003;43703;51.060;-0.086;2022-07-10T06:41:26;4;4;
57884;PMS5003;43703;51.060;-0.086;2022-07-10T06:43:51;6;5;
57884;PMS5003;43703;51.060;-0.086;2022-07-10T06:46:17;4;4;
57884;PMS5003;43703;51.060;-0.086;2022-07-10T06:48:43;4;4;
57884;PMS5003;43703;51.060;-0.086;2022-07-10T06:51:09;7;5;
57884;PMS5003;43703;51.060;-0.086;2022-07-10T06:53:34;4;4;
57884;PMS5003;43703;51.060;-0.086;2022-07-10T06:56:00;6;4;
57884;PMS5003;43703;51.060;-0.086;2022-07-10T06:58:26;3;3;
57884;PMS5003;43703;51.060;-0.086;2022-07-10T07:00:52;3;3;
57884;PMS5003;43703;51.060;-0.086;2022-07-10T07:03:18;8;3;
57884;PMS5003;43703;51.060;-0.086;2022-07-10T07:05:44;3;3;
57884;PMS5003;43703;51.060;-0.086;2022-07-10T07:08:09;5;5;
57884;PMS5003;43703;51.060;-0.086;2022-07-10T07:10:37;5;4;
57884;PMS5003;43703;51.060;-0.086;2022-07-10T07:13:02;4;4;
57884;PMS5003;43703;51.060;-0.086;2022-07-10T07:15:26;3;3;
57884;PMS5003;43703;51.060;-0.086;2022-07-10T07:17:53;2;2;
57884;PMS5003;43703;51.060;-0.086;2022-07-10T07:20:18;2;2;
57884;PMS5003;43703;51.060;-0.086;2022-07-10T07:22:46;4;4;
57884;PMS5003;43703;51.060;-0.086;2022-07-10T07:25:10;6;3;
57884;PMS5003;43703;51.060;-0.086;2022-07-10T07:27:37;5;5;
57884;PMS5003;43703;51.060;-0.086;2022-07-10T07:30:03;4;4;
57884;PMS5003;43703;51.060;-0.086;2022-07-10T07:32:28;2;2;
57884;PMS5003;43703;51.060;-0.086;2022-07-10T07:34:55;5;5;
57884;PMS5003;43703;51.060;-0.086;2022-07-10T07:39:45;3;3;
57884;PMS5003;43703;51.060;-0.086;2022-07-10T07:42:11;4;4;
57884;PMS5003;43703;51.060;-0.086;2022-07-10T07:44:37;4;4;
57884;PMS5003;43703;51.060;-0.086;2022-07-10T07:47:04;3;3;
57884;PMS5003;43703;51.060;-0.086;2022-07-10T07:49:30;2;2;
57884;PMS5003;43703;51.060;-0.086;2022-07-10T07:51:54;4;4;
57884;PMS5003;43703;51.060;-0.086;2022-07-10T07:54:20;3;3;
57884;PMS5003;43703;51.060;-0.086;2022-07-10T07:56:46;4;3;
57884;PMS5003;43703;51.060;-0.086;2022-07-10T07:59:12;4;4;
57884;PMS5003;43703;51.060;-0.086;2022-07-10T08:01:38;2;2;
57884;PMS5003;43703;51.060;-0.086;2022-07-10T08:04:03;3;3;
57884;PMS5003;43703;51.060;-0.086;2022-07-10T08:06:30;3;3;
57884;PMS5003;43703;51.060;-0.086;2022-07-10T08:08:55;5;5;
57884;PMS5003;43703;51.060;-0.086;2022-07-10T08:11:21;3;3;
57884;PMS5003;43703;51.060;-0.086;2022-07-10T08:13:52;4;4;
57884;PMS5003;43703;51.060;-0.086;2022-07-10T08:16:13;3;3;
57884;PMS5003;43703;51.060;-0.086;2022-07-10T08:18:39;2;2;
57884;PMS5003;43703;51.060;-0.086;2022-07-10T08:21:05;3;3;
57884;PMS5003;43703;51.060;-0.086;2022-07-10T08:23:31;4;4;
57884;PMS5003;43703;51.060;-0.086;2022-07-10T08:25:57;2;2;
57884;PMS5003;43703;51.060;-0.086;2022-07-10T08:28:23;5;3;
57884;PMS5003;43703;51.060;-0.086;2022-07-10T08:30:49;4;3;
57884;PMS5003;43703;51.060;-0.086;2022-07-10T08:33:14;3;3;
57884;PMS5003;43703;51.060;-0.086;2022-07-10T08:35:40;3;3;
57884;PMS5003;43703;51.060;-0.086;2022-07-10T08:38:07;2;2;
57884;PMS5003;43703;51.060;-0.086;2022-07-10T08:40:33;3;3;
57884;PMS5003;43703;51.060;-0.086;2022-07-10T08:42:57;5;3;
57884;PMS5003;43703;51.060;-0.086;2022-07-10T08:45:21;3;3;
57884;PMS5003;43703;51.060;-0.086;2022-07-10T08:47:47;5;4;
57884;PMS5003;43703;51.060;-0.086;2022-07-10T08:50:17;3;3;
57884;PMS5003;43703;51.060;-0.086;2022-07-10T08:52:42;3;3;
57884;PMS5003;43703;51.060;-0.086;2022-07-10T08:55:02;3;3;
57884;PMS5003;43703;51.060;-0.086;2022-07-10T08:57:27;2;2;
57884;PMS5003;43703;51.060;-0.086;2022-07-10T08:59:52;5;4;
57884;PMS5003;43703;51.060;-0.086;2022-07-10T09:02:17;2;2;
57884;PMS5003;43703;51.060;-0.086;2022-07-10T09:04:42;3;3;
57884;PMS5003;43703;51.060;-0.086;2022-07-10T09:07:07;3;3;
57884;PMS5003;43703;51.060;-0.086;2022-07-10T09:09:32;7;5;
57884;PMS5003;43703;51.060;-0.086;2022-07-10T09:11:56;4;4;
57884;PMS5003;43703;51.060;-0.086;2022-07-10T09:14:22;4;4;
57884;PMS5003;43703;51.060;-0.086;2022-07-10T09:16:51;2;2;
57884;PMS5003;43703;51.060;-0.086;2022-07-10T09:19:16;1;1;
57884;PMS5003;43703;51.060;-0.086;2022-07-10T09:21:37;3;3;
57884;PMS5003;43703;51.060;-0.086;2022-07-10T09:24:02;4;4;
57884;PMS5003;43703;51.060;-0.086;2022-07-10T09:26:28;3;3;
57884;PMS5003;43703;51.060;-0.086;2022-07-10T09:28:53;3;2;
57884;PMS5003;43703;51.060;-0.086;2022-07-10T09:31:18;2;2;
57884;PMS5003;43703;51.060;-0.086;2022-07-10T09:33:42;3;3;
57884;PMS5003;43703;51.060;-0.086;2022-07-10T09:36:08;3;3;
57884;PMS5003;43703;51.060;-0.086;2022-07-10T09:40:57;2;2;
57884;PMS5003;43703;51.060;-0.086;2022-07-10T09:43:22;2;2;
57884;PMS5003;43703;51.060;-0.086;2022-07-10T09:45:47;3;3;
57884;PMS5003;43703;51.060;-0.086;2022-07-10T09:48:13;3;3;
57884;PMS5003;43703;51.060;-0.086;2022-07-10T09:50:38;4;4;
57884;PMS5003;43703;51.060;-0.086;2022-07-10T09:53:04;5;5;
57884;PMS5003;43703;51.060;-0.086;2022-07-10T09:55:29;4;4;
57884;PMS5003;43703;51.060;-0.086;2022-07-10T09:57:54;4;4;
57884;PMS5003;43703;51.060;-0.086;2022-07-10T10:00:17;3;3;
57884;PMS5003;43703;51.060;-0.086;2022-07-10T10:02:43;4;4;
57884;PMS5003;43703;51.060;-0.086;2022-07-10T10:05:08;3;3;
57884;PMS5003;43703;51.060;-0.086;2022-07-10T10:07:33;3;3;
57884;PMS5003;43703;51.060;-0.086;2022-07-10T10:09:58;5;5;
57884;PMS5003;43703;51.060;-0.086;2022-07-10T10:12:25;4;4;
57884;PMS5003;43703;51.060;-0.086;2022-07-10T10:14:48;3;3;
57884;PMS5003;43703;51.060;-0.086;2022-07-10T10:17:13;2;2;
57884;PMS5003;43703;51.060;-0.086;2022-07-10T10:19:38;5;4;
57884;PMS5003;43703;51.060;-0.086;2022-07-10T10:22:04;4;4;
57884;PMS5003;43703;51.060;-0.086;2022-07-10T10:24:28;5;4;
57884;PMS5003;43703;51.060;-0.086;2022-07-10T10:26:53;5;5;
57884;PMS5003;43703;51.060;-0.086;2022-07-10T10:29:18;4;4;
57884;PMS5003;43703;51.060;-0.086;2022-07-10T10:31:43;5;5;
57884;PMS5003;43703;51.060;-0.086;2022-07-10T10:34:08;5;5;
57884;PMS5003;43703;51.060;-0.086;2022-07-10T10:39:02;5;5;
57884;PMS5003;43703;51.060;-0.086;2022-07-10T10:41:23;6;3;
57884;PMS5003;43703;51.060;-0.086;2022-07-10T10:48:38;5;5;
57884;PMS5003;43703;51.060;-0.086;2022-07-10T10:51:04;4;4;
57884;PMS5003;43703;51.060;-0.086;2022-07-10T10:53:28;3;3;
57884;PMS5003;43703;51.060;-0.086;2022-07-10T10:58:18;3;3;
57884;PMS5003;43703;51.060;-0.086;2022-07-10T11:00:44;5;4;
57884;PMS5003;43703;51.060;-0.086;2022-07-10T11:07:59;4;4;
57884;PMS5003;43703;51.060;-0.086;2022-07-10T11:10:27;3;3;
57884;PMS5003;43703;51.060;-0.086;2022-07-10T11:15:13;6;4;
57884;PMS5003;43703;51.060;-0.086;2022-07-10T11:17:39;3;3;
57884;PMS5003;43703;51.060;-0.086;2022-07-10T11:20:05;6;5;
57884;PMS5003;43703;51.060;-0.086;2022-07-10T11:25:00;3;3;
57884;PMS5003;43703;51.060;-0.086;2022-07-10T11:27:26;4;4;
57884;PMS5003;43703;51.060;-0.086;2022-07-10T11:29:44;5;5;
57884;PMS5003;43703;51.060;-0.086;2022-07-10T11:32:09;4;4;
57884;PMS5003;43703;51.060;-0.086;2022-07-10T11:34:37;4;4;
57884;PMS5003;43703;51.060;-0.086;2022-07-10T11:37:00;4;4;
57884;PMS5003;43703;51.060;-0.086;2022-07-10T11:39:26;3;3;
57884;PMS5003;43703;51.060;-0.086;2022-07-10T11:41:49;4;4;
57884;PMS5003;43703;51.060;-0.086;2022-07-10T11:44:15;3;3;
57884;PMS5003;43703;51.060;-0.086;2022-07-10T11:46:40;6;5;
57884;PMS5003;43703;51.060;-0.086;2022-07-10T11:49:05;4;4;
57884;PMS5003;43703;51.060;-0.086;2022-07-10T11:51:31;4;4;
57884;PMS5003;43703;51.060;-0.086;2022-07-10T11:53:57;4;4;
57884;PMS5003;43703;51.060;-0.086;2022-07-10T11:56:20;4;4;
57884;PMS5003;43703;51.060;-0.086;2022-07-10T12:01:10;4;4;
57884;PMS5003;43703;51.060;-0.086;2022-07-10T12:03:35;3;3;
57884;PMS5003;43703;51.060;-0.086;2022-07-10T12:06:02;4;4;
57884;PMS5003;43703;51.060;-0.086;2022-07-10T12:08:25;5;5;
57884;PMS5003;43703;51.060;-0.086;2022-07-10T12:10:51;4;4;
57884;PMS5003;43703;51.060;-0.086;2022-07-10T12:13:16;5;5;
57884;PMS5003;43703;51.060;-0.086;2022-07-10T12:15:40;5;5;
57884;PMS5003;43703;51.060;-0.086;2022-07-10T12:18:05;5;5;
57884;PMS5003;43703;51.060;-0.086;2022-07-10T12:20:31;5;3;
57884;PMS5003;43703;51.060;-0.086;2022-07-10T12:22:57;6;6;
57884;PMS5003;43703;51.060;-0.086;2022-07-10T12:25:20;3;3;
57884;PMS5003;43703;51.060;-0.086;2022-07-10T12:27:45;3;3;
57884;PMS5003;43703;51.060;-0.086;2022-07-10T12:30:11;4;4;
57884;PMS5003;43703;51.060;-0.086;2022-07-10T12:32:36;4;4;
57884;PMS5003;43703;51.060;-0.086;2022-07-10T12:35:01;4;3;
57884;PMS5003;43703;51.060;-0.086;2022-07-10T12:37:25;5;5;
57884;PMS5003;43703;51.060;-0.086;2022-07-10T12:39:51;4;4;
57884;PMS5003;43703;51.060;-0.086;2022-07-10T12:44:41;3;3;
57884;PMS5003;43703;51.060;-0.086;2022-07-10T12:47:07;3;3;
57884;PMS5003;43703;51.060;-0.086;2022-07-10T12:49:31;5;5;
57884;PMS5003;43703;51.060;-0.086;2022-07-10T12:51:55;3;3;
57884;PMS5003;43703;51.060;-0.086;2022-07-10T12:56:55;5;5;
57884;PMS5003;43703;51.060;-0.086;2022-07-10T12:59:12;5;5;
57884;PMS5003;43703;51.060;-0.086;2022-07-10T13:04:02;6;6;
57884;PMS5003;43703;51.060;-0.086;2022-07-10T13:06:27;4;4;
57884;PMS5003;43703;51.060;-0.086;2022-07-10T13:08:52;4;4;
57884;PMS5003;43703;51.060;-0.086;2022-07-10T13:11:18;8;6;
57884;PMS5003;43703;51.060;-0.086;2022-07-10T13:13:43;7;7;
57884;PMS5003;43703;51.060;-0.086;2022-07-10T13:16:08;4;4;
57884;PMS5003;43703;51.060;-0.086;2022-07-10T13:18:34;4;4;
57884;PMS5003;43703;51.060;-0.086;2022-07-10T13:20:59;6;6;
57884;PMS5003;43703;51.060;-0.086;2022-07-10T13:23:24;5;5;
57884;PMS5003;43703;51.060;-0.086;2022-07-10T13:25:49;6;6;
57884;PMS5003;43703;51.060;-0.086;2022-07-10T13:28:14;6;5;
57884;PMS5003;43703;51.060;-0.086;2022-07-10T13:30:39;6;6;
57884;PMS5003;43703;51.060;-0.086;2022-07-10T13:33:04;3;3;
57884;PMS5003;43703;51.060;-0.086;2022-07-10T13:35:29;4;4;
57884;PMS5003;43703;51.060;-0.086;2022-07-10T13:37:54;6;4;
57884;PMS5003;43703;51.060;-0.086;2022-07-10T13:40:19;5;5;
57884;PMS5003;43703;51.060;-0.086;2022-07-10T13:42:44;5;5;
57884;PMS5003;43703;51.060;-0.086;2022-07-10T13:45:10;6;5;
57884;PMS5003;43703;51.060;-0.086;2022-07-10T13:47:35;4;4;
57884;PMS5003;43703;51.060;-0.086;2022-07-10T13:50:00;5;5;
57884;PMS5003;43703;51.060;-0.086;2022-07-10T13:52:25;4;4;
57884;PMS5003;43703;51.060;-0.086;2022-07-10T13:54:50;6;6;
57884;PMS5003;43703;51.060;-0.086;2022-07-10T13:57:15;6;6;
57884;PMS5003;43703;51.060;-0.086;2022-07-10T13:59:40;7;7;
57884;PMS5003;43703;51.060;-0.086;2022-07-10T14:02:05;4;4;
57884;PMS5003;43703;51.060;-0.086;2022-07-10T14:04:30;5;5;
57884;PMS5003;43703;51.060;-0.086;2022-07-10T14:06:55;5;5;
57884;PMS5003;43703;51.060;-0.086;2022-07-10T14:09:20;4;4;
57884;PMS5003;43703;51.060;-0.086;2022-07-10T14:11:46;5;4;
57884;PMS5003;43703;51.060;-0.086;2022-07-10T14:14:10;4;4;
57884;PMS5003;43703;51.060;-0.086;2022-07-10T14:16:39;6;6;
57884;PMS5003;43703;51.060;-0.086;2022-07-10T14:19:01;6;5;
57884;PMS5003;43703;51.060;-0.086;2022-07-10T14:21:29;6;6;
57884;PMS5003;43703;51.060;-0.086;2022-07-10T14:23:52;5;5;
57884;PMS5003;43703;51.060;-0.086;2022-07-10T14:26:19;5;5;
57884;PMS5003;43703;51.060;-0.086;2022-07-10T14:28:40;4;4;
57884;PMS5003;43703;51.060;-0.086;2022-07-10T14:31:07;4;4;
57884;PMS5003;43703;51.060;-0.086;2022-07-10T14:33:32;4;4;
57884;PMS5003;43703;51.060;-0.086;2022-07-10T14:35:57;5;5;
57884;PMS5003;43703;51.060;-0.086;2022-07-10T14:38:22;7;5;
57884;PMS5003;43703;51.060;-0.086;2022-07-10T14:40:46;5;5;
57884;PMS5003;43703;51.060;-0.086;2022-07-10T14:43:11;5;5;
57884;PMS5003;43703;51.060;-0.086;2022-07-10T14:45:35;4;4;
57884;PMS5003;43703;51.060;-0.086;2022-07-10T14:48:02;5;5;
57884;PMS5003;43703;51.060;-0.086;2022-07-10T14:50:26;3;3;
57884;PMS5003;43703;51.060;-0.086;2022-07-10T14:52:51;4;4;
57884;PMS5003;43703;51.060;-0.086;2022-07-10T14:55:16;5;5;
57884;PMS5003;43703;51.060;-0.086;2022-07-10T14:57:43;5;5;
57884;PMS5003;43703;51.060;-0.086;2022-07-10T15:00:09;3;3;
57884;PMS5003;43703;51.060;-0.086;2022-07-10T15:02:35;2;2;
57884;PMS5003;43703;51.060;-0.086;2022-07-10T15:05:01;4;4;
57884;PMS5003;43703;51.060;-0.086;2022-07-10T15:07:26;4;4;
57884;PMS5003;43703;51.060;-0.086;2022-07-10T15:09:52;6;5;
57884;PMS5003;43703;51.060;-0.086;2022-07-10T15:12:17;4;4;
57884;PMS5003;43703;51.060;-0.086;2022-07-10T15:14:42;5;5;
57884;PMS5003;43703;51.060;-0.086;2022-07-10T15:17:06;4;4;
57884;PMS5003;43703;51.060;-0.086;2022-07-10T15:19:32;3;3;
57884;PMS5003;43703;51.060;-0.086;2022-07-10T15:21:58;4;4;
57884;PMS5003;43703;51.060;-0.086;2022-07-10T15:24:23;5;5;
57884;PMS5003;43703;51.060;-0.086;2022-07-10T15:26:49;4;4;
57884;PMS5003;43703;51.060;-0.086;2022-07-10T15:29:15;4;4;
57884;PMS5003;43703;51.060;-0.086;2022-07-10T15:31:39;7;5;
57884;PMS5003;43703;51.060;-0.086;2022-07-10T15:34:06;6;6;
57884;PMS5003;43703;51.060;-0.086;2022-07-10T15:36:31;5;5;
57884;PMS5003;43703;51.060;-0.086;2022-07-10T15:38:57;3;3;
57884;PMS5003;43703;51.060;-0.086;2022-07-10T15:41:22;4;4;
57884;PMS5003;43703;51.060;-0.086;2022-07-10T15:43:48;3;3;
57884;PMS5003;43703;51.060;-0.086;2022-07-10T15:46:14;5;4;
57884;PMS5003;43703;51.060;-0.086;2022-07-10T15:48:44;4;4;
57884;PMS5003;43703;51.060;-0.086;2022-07-10T15:51:05;4;4;
57884;PMS5003;43703;51.060;-0.086;2022-07-10T15:53:31;7;6;
57884;PMS5003;43703;51.060;-0.086;2022-07-10T15:55:56;5;5;
57884;PMS5003;43703;51.060;-0.086;2022-07-10T15:58:22;6;6;
57884;PMS5003;43703;51.060;-0.086;2022-07-10T16:00:49;4;4;
57884;PMS5003;43703;51.060;-0.086;2022-07-10T16:03:14;4;4;
57884;PMS5003;43703;51.060;-0.086;2022-07-10T16:05:39;3;3;
57884;PMS5003;43703;51.060;-0.086;2022-07-10T16:08:05;5;4;
57884;PMS5003;43703;51.060;-0.086;2022-07-10T16:10:31;6;6;
57884;PMS5003;43703;51.060;-0.086;2022-07-10T16:12:57;3;3;
57884;PMS5003;43703;51.060;-0.086;2022-07-10T16:15:22;4;4;
57884;PMS5003;43703;51.060;-0.086;2022-07-10T16:17:48;4;4;
57884;PMS5003;43703;51.060;-0.086;2022-07-10T16:20:14;3;3;
57884;PMS5003;43703;51.060;-0.086;2022-07-10T16:22:41;3;3;
57884;PMS5003;43703;51.060;-0.086;2022-07-10T16:25:07;3;3;
57884;PMS5003;43703;51.060;-0.086;2022-07-10T16:27:33;3;3;
57884;PMS5003;43703;51.060;-0.086;2022-07-10T16:29:58;4;4;
57884;PMS5003;43703;51.060;-0.086;2022-07-10T16:32:24;4;4;
57884;PMS5003;43703;51.060;-0.086;2022-07-10T16:34:48;5;5;
57884;PMS5003;43703;51.060;-0.086;2022-07-10T16:37:15;5;5;
57884;PMS5003;43703;51.060;-0.086;2022-07-10T16:39:41;5;5;
57884;PMS5003;43703;51.060;-0.086;2022-07-10T16:42:08;5;5;
57884;PMS5003;43703;51.060;-0.086;2022-07-10T16:44:33;3;3;
57884;PMS5003;43703;51.060;-0.086;2022-07-10T16:46:58;3;3;
57884;PMS5003;43703;51.060;-0.086;2022-07-10T16:49:24;3;3;
57884;PMS5003;43703;51.060;-0.086;2022-07-10T16:51:50;4;4;
57884;PMS5003;43703;51.060;-0.086;2022-07-10T16:54:16;5;4;
57884;PMS5003;43703;51.060;-0.086;2022-07-10T16:56:42;3;3;
57884;PMS5003;43703;51.060;-0.086;2022-07-10T16:59:07;5;5;